Time;durP1;ratioP1;P1;durP2;ratioP2;P2;SDS_P1;SDS_P2;PMS_P1;PMS_P2;Temp;Humidity;BMP_temperature;BMP_pressure;BME280_temperature;BME280_humidity;BME280_pressure;Samples;Min_cycle;Max_cycle;Signal;HPM_P1;HPM_P2
2023/09/26 00:01:29;;;;;;;7.28;3.55;;;19.10;99.90;;;;;;5069476;28;20036;-86
2023/09/26 00:03:55;;;;;;;7.63;3.60;;;19.10;99.90;;;;;;5069275;28;20017;-88
2023/09/26 00:06:23;;;;;;;7.50;3.20;;;19.10;99.90;;;;;;5068156;28;20120;-87
2023/09/26 00:08:52;;;;;;;7.82;3.15;;;19.10;99.90;;;;;;5069348;28;20048;-88
2023/09/26 00:11:17;;;;;;;11.27;3.40;;;19.10;99.90;;;;;;5069247;28;20104;-87
2023/09/26 00:13:43;;;;;;;6.93;3.22;;;19.10;99.90;;;;;;5070158;28;20085;-88
2023/09/26 00:16:12;;;;;;;8.00;3.50;;;19.10;99.90;;;;;;5051398;28;20035;-87
2023/09/26 00:18:40;;;;;;;7.93;3.70;;;19.10;99.90;;;;;;5069055;28;20032;-86
2023/09/26 00:21:08;;;;;;;5.78;3.30;;;19.10;99.90;;;;;;5069101;28;20613;-88
2023/09/26 00:23:35;;;;;;;6.00;3.50;;;19.10;99.90;;;;;;5069213;28;20021;-89
2023/09/26 00:26:01;;;;;;;8.15;3.28;;;19.10;99.90;;;;;;5069078;28;20033;-88
2023/09/26 00:28:27;;;;;;;6.65;3.60;;;19.10;99.90;;;;;;5067941;28;20016;-87
2023/09/26 00:30:53;;;;;;;8.65;3.15;;;19.10;99.90;;;;;;5069209;28;20043;-87
2023/09/26 00:33:18;;;;;;;9.30;3.75;;;19.10;99.90;;;;;;5069013;28;20024;-88
2023/09/26 00:35:44;;;;;;;11.27;3.80;;;19.20;99.90;;;;;;5072471;28;20374;-87
2023/09/26 00:38:09;;;;;;;8.10;3.20;;;19.10;99.90;;;;;;5072859;28;20099;-87
2023/09/26 00:40:35;;;;;;;10.88;3.63;;;19.10;99.90;;;;;;5072628;28;20039;-88
2023/09/26 00:43:00;;;;;;;7.80;3.35;;;19.10;99.90;;;;;;5071628;28;20023;-87
2023/09/26 00:45:27;;;;;;;7.30;3.30;;;19.10;99.90;;;;;;5071399;28;20016;-87
2023/09/26 00:47:53;;;;;;;10.23;3.85;;;19.10;99.90;;;;;;5072761;28;20063;-88
2023/09/26 00:50:22;;;;;;;7.22;3.28;;;19.10;99.90;;;;;;5072477;28;20055;-86
2023/09/26 00:52:51;;;;;;;8.68;3.65;;;19.10;99.90;;;;;;5072822;28;20031;-83
2023/09/26 00:55:20;;;;;;;7.38;3.70;;;19.10;99.90;;;;;;5073259;28;20492;-88
2023/09/26 00:57:46;;;;;;;12.50;4.03;;;19.10;99.90;;;;;;5073280;28;20492;-89
2023/09/26 01:00:15;;;;;;;7.80;3.50;;;19.00;99.90;;;;;;5072334;28;20100;-87
2023/09/26 01:02:41;;;;;;;6.95;3.88;;;19.10;99.90;;;;;;5072208;28;20021;-88
2023/09/26 01:05:08;;;;;;;7.57;3.47;;;19.10;99.90;;;;;;5072239;28;20562;-88
2023/09/26 01:07:34;;;;;;;8.38;3.67;;;19.00;99.90;;;;;;5072427;28;20424;-89
2023/09/26 01:10:01;;;;;;;9.05;3.58;;;19.00;99.90;;;;;;5054390;28;20025;-87
2023/09/26 01:12:28;;;;;;;7.75;3.85;;;19.00;99.90;;;;;;5054586;28;20021;-88
2023/09/26 01:14:54;;;;;;;7.95;3.55;;;19.00;99.90;;;;;;5072019;28;20150;-87
2023/09/26 01:17:20;;;;;;;9.07;3.33;;;18.90;99.90;;;;;;5071848;28;20040;-88
2023/09/26 01:19:46;;;;;;;8.13;4.03;;;19.00;99.90;;;;;;5054823;28;20033;-90
2023/09/26 01:22:18;;;;;;;9.63;3.58;;;18.90;99.90;;;;;;5071979;28;20511;-85
2023/09/26 01:24:44;;;;;;;8.18;3.88;;;18.90;99.90;;;;;;5072151;28;20503;-89
2023/09/26 01:27:10;;;;;;;8.43;3.50;;;18.90;99.90;;;;;;5071931;28;20090;-88
2023/09/26 01:29:35;;;;;;;7.53;3.75;;;18.90;99.90;;;;;;5071885;28;20024;-87
2023/09/26 01:32:01;;;;;;;6.45;3.72;;;18.90;99.90;;;;;;5071736;28;20538;-87
2023/09/26 01:34:27;;;;;;;7.45;3.80;;;18.90;99.90;;;;;;5071672;28;20064;-89
2023/09/26 01:36:53;;;;;;;11.15;4.30;;;18.90;99.90;;;;;;5071637;28;20431;-87
2023/09/26 01:39:18;;;;;;;9.13;4.32;;;18.90;99.90;;;;;;5072477;28;20025;-88
2023/09/26 01:41:44;;;;;;;9.23;3.78;;;18.90;99.90;;;;;;5071752;28;20074;-87
2023/09/26 01:44:09;;;;;;;6.63;3.60;;;19.00;99.90;;;;;;5053773;28;20361;-86
2023/09/26 01:46:35;;;;;;;6.82;3.60;;;18.90;99.90;;;;;;5071216;28;20028;-88
2023/09/26 01:49:00;;;;;;;6.85;3.47;;;18.90;99.90;;;;;;5071559;28;20024;-86
2023/09/26 01:51:26;;;;;;;8.48;3.60;;;19.00;99.90;;;;;;5071539;28;20016;-85
2023/09/26 01:53:52;;;;;;;8.40;3.72;;;19.00;99.90;;;;;;5071359;28;20081;-84
2023/09/26 01:56:18;;;;;;;7.18;3.13;;;19.00;99.90;;;;;;5054270;28;20040;-85
2023/09/26 01:58:43;;;;;;;8.02;3.47;;;19.00;99.90;;;;;;5071111;28;20442;-87
2023/09/26 02:01:09;;;;;;;7.30;3.40;;;19.00;99.90;;;;;;5052926;28;20429;-85
2023/09/26 02:03:34;;;;;;;8.23;3.58;;;19.00;99.90;;;;;;5052972;28;20036;-85
2023/09/26 02:06:00;;;;;;;7.53;3.45;;;19.00;99.90;;;;;;5069566;28;20488;-84
2023/09/26 02:08:26;;;;;;;8.75;3.35;;;19.00;99.90;;;;;;5070767;28;20053;-85
2023/09/26 02:10:52;;;;;;;6.45;3.60;;;19.00;99.90;;;;;;5070726;28;20048;-85
2023/09/26 02:13:17;;;;;;;9.32;3.70;;;18.90;99.90;;;;;;5070209;28;20107;-86
2023/09/26 02:15:43;;;;;;;6.85;3.35;;;18.90;99.90;;;;;;5052687;28;20029;-86
2023/09/26 02:18:08;;;;;;;8.32;4.10;;;18.90;99.90;;;;;;5070590;28;20037;-88
2023/09/26 02:20:34;;;;;;;7.28;3.40;;;18.90;99.90;;;;;;5052704;28;20043;-87
2023/09/26 02:23:00;;;;;;;8.13;3.15;;;19.00;99.90;;;;;;5070652;28;20112;-89
2023/09/26 02:25:27;;;;;;;7.40;3.15;;;18.90;99.90;;;;;;5070647;28;20103;-86
2023/09/26 02:27:53;;;;;;;7.28;3.10;;;18.90;99.90;;;;;;5052800;28;20020;-85
2023/09/26 02:30:28;;;;;;;11.07;3.42;;;18.80;99.90;;;;;;5071469;28;20503;-87
2023/09/26 02:32:54;;;;;;;9.25;3.20;;;18.90;99.90;;;;;;5069316;28;20024;-87
2023/09/26 02:35:20;;;;;;;7.80;3.47;;;18.90;99.90;;;;;;5071141;28;20099;-86
2023/09/26 02:37:45;;;;;;;8.40;3.47;;;18.80;99.90;;;;;;5069028;28;20067;-89
2023/09/26 02:40:12;;;;;;;8.10;3.80;;;18.80;99.90;;;;;;5070268;28;20017;-87
2023/09/26 02:42:39;;;;;;;6.57;3.70;;;18.80;99.90;;;;;;5070559;28;20028;-87
2023/09/26 02:45:05;;;;;;;6.63;3.60;;;18.70;99.90;;;;;;5070531;28;20381;-88
2023/09/26 02:47:31;;;;;;;7.88;3.10;;;18.80;99.90;;;;;;5070287;28;20035;-87
2023/09/26 02:49:56;;;;;;;6.18;3.35;;;18.80;99.90;;;;;;5070167;28;20021;-86
2023/09/26 02:52:24;;;;;;;6.65;3.30;;;18.70;99.90;;;;;;5070844;28;20496;-90
2023/09/26 02:54:49;;;;;;;9.97;4.07;;;18.70;99.90;;;;;;5070980;28;20025;-89
2023/09/26 02:57:15;;;;;;;6.28;3.42;;;18.70;99.90;;;;;;5068383;28;20036;-89
2023/09/26 02:59:41;;;;;;;9.52;4.00;;;18.70;99.90;;;;;;5070132;28;20025;-90
2023/09/26 03:02:07;;;;;;;6.95;3.50;;;18.70;99.90;;;;;;5070141;28;20029;-87
2023/09/26 03:04:33;;;;;;;7.88;3.50;;;18.70;99.90;;;;;;5070164;28;20036;-89
2023/09/26 03:06:58;;;;;;;6.13;3.20;;;18.70;99.90;;;;;;5069846;28;20016;-88
2023/09/26 03:09:24;;;;;;;12.57;3.72;;;18.60;99.90;;;;;;5069019;28;20492;-86
2023/09/26 03:11:50;;;;;;;6.68;3.38;;;18.60;99.90;;;;;;5063823;28;20117;-85
2023/09/26 03:14:18;;;;;;;8.27;3.42;;;18.60;99.90;;;;;;5069694;28;20028;-87
2023/09/26 03:16:44;;;;;;;7.97;3.67;;;18.60;99.90;;;;;;5063338;28;20119;-86
2023/09/26 03:19:10;;;;;;;7.53;3.75;;;18.50;99.90;;;;;;5089592;28;20119;-86
2023/09/26 03:21:36;;;;;;;8.38;3.50;;;18.50;99.90;;;;;;5089609;28;20111;-86
2023/09/26 03:24:02;;;;;;;6.03;3.55;;;18.50;99.90;;;;;;5089524;28;20044;-87
2023/09/26 03:26:27;;;;;;;7.43;3.40;;;18.50;99.90;;;;;;5089339;28;20101;-88
2023/09/26 03:28:53;;;;;;;6.25;3.03;;;18.40;99.90;;;;;;5075158;28;20091;-87
2023/09/26 03:31:19;;;;;;;6.20;3.22;;;18.40;99.90;;;;;;5069423;28;20036;-88
2023/09/26 03:33:44;;;;;;;8.13;3.47;;;18.40;99.90;;;;;;5051943;28;20024;-90
2023/09/26 03:36:10;;;;;;;7.40;3.53;;;18.40;99.90;;;;;;5069409;28;20119;-88
2023/09/26 03:38:35;;;;;;;9.85;3.63;;;18.40;99.90;;;;;;5068204;28;20024;-88
2023/09/26 03:41:06;;;;;;;14.15;3.78;;;18.50;99.90;;;;;;5069555;28;20036;-91
2023/09/26 03:43:32;;;;;;;8.18;3.75;;;18.50;99.90;;;;;;5069610;28;20043;-88
2023/09/26 03:46:05;;;;;;;8.98;3.40;;;18.50;99.90;;;;;;5069792;28;20473;-88
2023/09/26 03:48:31;;;;;;;12.40;3.90;;;18.50;99.90;;;;;;5069307;28;20020;-87
2023/09/26 03:51:13;;;;;;;6.85;3.42;;;18.50;99.90;;;;;;5069674;28;20047;-87
2023/09/26 03:53:40;;;;;;;7.97;3.60;;;18.50;99.90;;;;;;5069108;28;20028;-86
2023/09/26 03:56:06;;;;;;;8.75;3.83;;;18.50;99.90;;;;;;5068823;28;20033;-90
2023/09/26 03:58:33;;;;;;;9.02;3.38;;;18.50;99.90;;;;;;5069330;28;20017;-91
2023/09/26 04:01:12;;;;;;;7.70;3.92;;;18.40;99.90;;;;;;5069180;28;20032;-89
2023/09/26 04:03:38;;;;;;;6.22;2.97;;;18.50;99.90;;;;;;5069480;28;20031;-86
2023/09/26 04:06:04;;;;;;;8.63;3.45;;;18.50;99.90;;;;;;5031408;28;20025;-87
2023/09/26 04:08:30;;;;;;;11.23;3.40;;;18.40;99.90;;;;;;5067604;28;20028;-88
2023/09/26 04:10:55;;;;;;;6.00;2.88;;;18.40;99.90;;;;;;5073266;28;20108;-88
2023/09/26 04:13:21;;;;;;;7.28;3.28;;;18.40;99.90;;;;;;5055226;28;20380;-88
2023/09/26 04:15:46;;;;;;;8.18;3.42;;;18.40;99.90;;;;;;5072868;28;20067;-90
2023/09/26 04:18:12;;;;;;;7.95;3.20;;;18.50;99.90;;;;;;5073013;28;20098;-89
2023/09/26 04:20:38;;;;;;;10.85;3.40;;;18.40;99.90;;;;;;5069969;28;20032;-87
2023/09/26 04:23:04;;;;;;;4.95;3.10;;;18.50;99.90;;;;;;5047605;28;20033;-90
2023/09/26 04:25:31;;;;;;;6.85;3.58;;;18.40;99.90;;;;;;5051867;28;20103;-88
2023/09/26 04:27:57;;;;;;;6.03;3.03;;;18.40;99.90;;;;;;5036115;28;20057;-89
2023/09/26 04:30:23;;;;;;;5.75;2.88;;;18.40;99.90;;;;;;5075024;28;20024;-89
2023/09/26 04:32:49;;;;;;;6.00;3.08;;;18.40;99.90;;;;;;5072808;28;20036;-91
2023/09/26 04:35:14;;;;;;;8.63;3.22;;;18.40;99.90;;;;;;5070602;28;20032;-89
2023/09/26 04:37:41;;;;;;;7.00;2.90;;;18.50;99.90;;;;;;5051865;28;20088;-89
2023/09/26 04:40:10;;;;;;;4.78;2.83;;;18.50;99.90;;;;;;5060987;28;20086;-89
2023/09/26 04:42:41;;;;;;;4.75;2.88;;;18.40;99.90;;;;;;5055969;28;20115;-89
2023/09/26 04:45:08;;;;;;;4.95;2.70;;;18.40;99.90;;;;;;5071185;28;20020;-89
2023/09/26 04:47:35;;;;;;;5.13;2.72;;;18.40;99.90;;;;;;5073738;28;20488;-88
2023/09/26 04:50:01;;;;;;;6.28;3.33;;;18.40;99.90;;;;;;5073676;28;20048;-91
2023/09/26 04:52:27;;;;;;;4.50;2.90;;;18.40;99.90;;;;;;5056515;28;20079;-89
2023/09/26 04:54:52;;;;;;;4.88;2.50;;;18.40;99.90;;;;;;5055401;28;20021;-90
2023/09/26 04:57:18;;;;;;;7.72;2.80;;;18.40;99.90;;;;;;5053821;28;20037;-91
2023/09/26 04:59:43;;;;;;;4.07;2.90;;;18.30;99.90;;;;;;5073210;28;20468;-91
2023/09/26 05:02:09;;;;;;;6.80;3.20;;;18.30;99.90;;;;;;5051822;28;20028;-89
2023/09/26 05:04:35;;;;;;;5.55;3.20;;;18.30;99.90;;;;;;5054073;28;21639;-92
2023/09/26 05:07:01;;;;;;;4.93;2.90;;;18.30;99.90;;;;;;5054418;28;20025;-92
2023/09/26 05:09:26;;;;;;;9.18;2.80;;;18.40;99.90;;;;;;5037162;28;20021;-92
2023/09/26 05:11:52;;;;;;;6.47;2.70;;;18.30;99.90;;;;;;5044090;28;20044;-90
2023/09/26 05:14:17;;;;;;;5.65;2.70;;;18.40;99.90;;;;;;5079071;28;20047;-90
2023/09/26 05:16:43;;;;;;;6.82;3.42;;;18.40;99.90;;;;;;5059261;28;20036;-90
2023/09/26 05:19:09;;;;;;;4.70;2.50;;;18.30;99.90;;;;;;5056148;28;20100;-92
2023/09/26 05:21:34;;;;;;;5.90;2.70;;;18.30;99.90;;;;;;5057336;28;20073;-92
2023/09/26 05:24:00;;;;;;;5.20;2.80;;;18.30;99.90;;;;;;5056667;28;20025;-92
2023/09/26 05:26:26;;;;;;;3.28;2.50;;;18.30;99.90;;;;;;5064180;28;20103;-92
2023/09/26 05:28:51;;;;;;;3.55;2.50;;;18.30;99.90;;;;;;5077085;28;21002;-92
2023/09/26 05:31:18;;;;;;;4.60;2.70;;;18.20;99.90;;;;;;5060458;28;20029;-91
2023/09/26 05:33:44;;;;;;;6.55;2.80;;;18.20;99.90;;;;;;5054569;28;20020;-91
2023/09/26 05:36:09;;;;;;;6.07;2.47;;;18.10;99.90;;;;;;5048364;28;20070;-92
2023/09/26 05:38:35;;;;;;;4.30;2.50;;;18.10;99.90;;;;;;5054401;28;20023;-89
2023/09/26 05:41:01;;;;;;;4.20;2.35;;;18.10;99.90;;;;;;5052085;28;20066;-90
2023/09/26 05:43:27;;;;;;;4.07;2.50;;;18.10;99.90;;;;;;5051510;28;20116;-90
2023/09/26 05:45:52;;;;;;;5.13;2.70;;;18.10;99.90;;;;;;5051182;28;20029;-92
2023/09/26 05:48:19;;;;;;;4.40;2.40;;;18.10;99.90;;;;;;5767125;22;20085;-92
2023/09/26 05:50:45;;;;;;;4.93;2.53;;;18.10;99.90;;;;;;5096157;28;20035;-92
2023/09/26 05:53:11;;;;;;;4.75;2.33;;;18.10;99.90;;;;;;5095199;28;20024;-92
2023/09/26 05:55:37;;;;;;;3.50;2.30;;;18.10;99.90;;;;;;5091706;28;20409;-88
2023/09/26 05:58:03;;;;;;;6.07;2.50;;;18.00;99.90;;;;;;5094903;28;20027;-88
2023/09/26 06:00:29;;;;;;;6.68;2.47;;;18.00;99.90;;;;;;5112843;28;20020;-91
2023/09/26 06:02:54;;;;;;;2.33;2.00;;;18.10;99.90;;;;;;5095162;28;20222;-91
2023/09/26 06:05:20;;;;;;;5.05;2.58;;;18.00;99.90;;;;;;5094695;28;20028;-91
2023/09/26 06:07:46;;;;;;;4.65;2.80;;;18.00;99.90;;;;;;5094383;28;20051;-92
2023/09/26 06:10:11;;;;;;;6.57;2.40;;;18.00;99.90;;;;;;5093037;28;20020;-90
2023/09/26 06:12:38;;;;;;;6.38;2.75;;;18.00;99.90;;;;;;5091912;28;20020;-89
2023/09/26 06:15:06;;;;;;;4.35;2.78;;;17.90;99.90;;;;;;5094621;28;20405;-89
2023/09/26 06:17:32;;;;;;;6.28;2.90;;;18.00;99.90;;;;;;5094783;28;20024;-91
2023/09/26 06:19:58;;;;;;;6.65;2.70;;;18.00;99.90;;;;;;5094474;28;20398;-90
2023/09/26 06:22:23;;;;;;;6.80;2.70;;;17.90;99.90;;;;;;5093345;28;20042;-90
2023/09/26 06:24:49;;;;;;;7.15;2.78;;;17.90;99.90;;;;;;5094497;28;20020;-91
2023/09/26 06:27:15;;;;;;;4.68;2.45;;;17.90;99.90;;;;;;5094353;28;20062;-91
2023/09/26 06:29:41;;;;;;;5.60;2.38;;;18.00;99.90;;;;;;5093733;28;20127;-89
2023/09/26 06:32:07;;;;;;;6.05;2.58;;;18.00;99.90;;;;;;5090737;28;20778;-90
2023/09/26 06:34:35;;;;;;;3.05;2.35;;;18.00;99.90;;;;;;5092578;28;20057;-89
2023/09/26 06:37:02;;;;;;;5.88;2.20;;;18.00;99.90;;;;;;5093086;28;20035;-87
2023/09/26 06:39:27;;;;;;;5.45;2.38;;;18.00;99.90;;;;;;5092290;28;20118;-89
2023/09/26 06:41:53;;;;;;;4.43;2.53;;;18.00;99.90;;;;;;5093273;28;20160;-89
2023/09/26 06:44:19;;;;;;;4.18;2.55;;;18.00;99.90;;;;;;5111698;28;20047;-92
2023/09/26 06:46:45;;;;;;;4.65;2.65;;;18.00;99.90;;;;;;5093666;28;20027;-89
2023/09/26 06:49:10;;;;;;;6.70;2.30;;;18.10;99.90;;;;;;5093379;28;20446;-90
2023/09/26 06:51:37;;;;;;;5.03;2.70;;;18.00;99.90;;;;;;5093919;28;20015;-91
2023/09/26 06:54:03;;;;;;;6.53;2.42;;;18.10;99.90;;;;;;5093837;28;20027;-90
2023/09/26 06:56:29;;;;;;;3.45;2.55;;;18.10;99.90;;;;;;5091028;28;20054;-90
2023/09/26 06:58:54;;;;;;;6.25;2.58;;;18.10;99.90;;;;;;5073259;28;20115;-90
2023/09/26 07:01:20;;;;;;;6.53;2.78;;;18.10;99.90;;;;;;5073250;28;20035;-89
2023/09/26 07:03:46;;;;;;;6.25;2.60;;;18.10;99.90;;;;;;5072946;28;20034;-90
2023/09/26 07:06:14;;;;;;;4.38;2.50;;;18.00;99.90;;;;;;5072958;28;20020;-90
2023/09/26 07:08:41;;;;;;;4.00;2.60;;;18.00;99.90;;;;;;5072829;28;20028;-91
2023/09/26 07:11:09;;;;;;;5.65;2.80;;;18.00;99.90;;;;;;5073814;28;20556;-91
2023/09/26 07:13:35;;;;;;;5.70;2.95;;;18.00;99.90;;;;;;5073133;28;20036;-89
2023/09/26 07:16:05;;;;;;;7.25;3.20;;;18.00;99.90;;;;;;5072756;28;20024;-90
2023/09/26 07:18:31;;;;;;;7.05;2.92;;;18.00;99.90;;;;;;5072645;28;20084;-90
2023/09/26 07:21:04;;;;;;;5.30;3.00;;;18.00;99.90;;;;;;5090768;28;20028;-90
2023/09/26 07:23:35;;;;;;;6.75;2.72;;;18.00;99.90;;;;;;5072614;28;20540;-89
2023/09/26 07:26:20;;;;;;;6.50;2.95;;;18.10;99.90;;;;;;5072772;28;20026;-91
2023/09/26 07:28:47;;;;;;;5.30;2.40;;;18.10;99.90;;;;;;5072615;28;20028;-89
2023/09/26 07:31:14;;;;;;;4.78;2.42;;;18.10;99.90;;;;;;5079961;28;20027;-91
2023/09/26 07:33:40;;;;;;;5.57;2.90;;;18.20;99.90;;;;;;5092756;28;20114;-91
2023/09/26 07:36:07;;;;;;;7.95;2.90;;;18.20;99.90;;;;;;5093631;28;20285;-90
2023/09/26 07:38:33;;;;;;;5.78;2.70;;;18.30;99.90;;;;;;5092736;28;20031;-91
2023/09/26 07:41:00;;;;;;;5.38;2.53;;;18.30;99.90;;;;;;5092316;28;20031;-89
2023/09/26 07:43:29;;;;;;;4.03;2.50;;;18.40;99.90;;;;;;5092230;28;20020;-89
2023/09/26 07:46:03;;;;;;;4.07;2.40;;;18.50;99.90;;;;;;5092708;28;20390;-90
2023/09/26 07:48:29;;;;;;;6.43;2.60;;;18.60;99.90;;;;;;5092123;28;20027;-90
2023/09/26 07:50:56;;;;;;;7.05;3.10;;;18.60;99.90;;;;;;5092154;28;20035;-89
2023/09/26 07:53:21;;;;;;;7.35;2.58;;;18.70;99.90;;;;;;5092205;28;20055;-89
2023/09/26 07:55:48;;;;;;;5.80;2.67;;;18.80;99.90;;;;;;5089409;28;20078;-89
2023/09/26 07:58:15;;;;;;;3.92;2.67;;;18.90;99.90;;;;;;5091539;28;20031;-88
2023/09/26 08:00:41;;;;;;;6.50;2.88;;;19.00;99.90;;;;;;5091884;28;20031;-90
2023/09/26 08:03:06;;;;;;;5.00;2.95;;;19.10;99.90;;;;;;5091334;28;20024;-93
2023/09/26 08:05:32;;;;;;;4.35;2.60;;;19.20;99.90;;;;;;5092301;28;20027;-93
2023/09/26 08:07:59;;;;;;;4.03;2.53;;;19.30;99.90;;;;;;5091034;28;20445;-90
2023/09/26 08:10:24;;;;;;;6.95;2.67;;;19.40;99.90;;;;;;5091130;28;20510;-88
2023/09/26 08:12:50;;;;;;;4.05;2.45;;;19.40;99.90;;;;;;5091986;28;20067;-89
2023/09/26 08:15:16;;;;;;;7.22;2.85;;;19.50;99.90;;;;;;5092632;28;20028;-90
2023/09/26 08:17:41;;;;;;;5.03;2.55;;;19.60;99.90;;;;;;5085253;28;20101;-92
2023/09/26 08:20:08;;;;;;;5.60;2.72;;;19.70;99.90;;;;;;5082098;28;20023;-92
2023/09/26 08:22:34;;;;;;;5.10;2.65;;;19.80;99.90;;;;;;5092328;28;20024;-92
2023/09/26 08:25:00;;;;;;;5.18;2.67;;;19.90;99.90;;;;;;5092809;28;20384;-91
2023/09/26 08:27:26;;;;;;;4.90;2.63;;;19.90;99.90;;;;;;5092455;28;20032;-91
2023/09/26 08:29:51;;;;;;;6.05;2.38;;;20.00;99.90;;;;;;5092422;28;20028;-90
2023/09/26 08:32:17;;;;;;;9.15;2.67;;;20.10;99.90;;;;;;5092289;28;20024;-90
2023/09/26 08:34:43;;;;;;;4.15;2.65;;;20.20;99.90;;;;;;5092078;28;20616;-89
2023/09/26 08:37:10;;;;;;;5.10;2.50;;;20.30;99.90;;;;;;5092773;28;20141;-91
2023/09/26 08:39:35;;;;;;;6.45;2.60;;;20.40;99.90;;;;;;5092302;28;20387;-91
2023/09/26 08:42:03;;;;;;;4.63;2.45;;;20.50;99.90;;;;;;5110442;28;20035;-90
2023/09/26 08:44:28;;;;;;;7.83;2.90;;;20.30;99.90;;;;;;5092093;28;20020;-94
2023/09/26 08:46:55;;;;;;;5.40;2.60;;;20.40;99.90;;;;;;5092426;28;20028;-91
2023/09/26 08:49:21;;;;;;;6.50;2.83;;;20.60;99.90;;;;;;5091882;28;20092;-90
2023/09/26 08:51:47;;;;;;;7.40;2.60;;;20.70;99.90;;;;;;5092382;28;20024;-91
2023/09/26 08:54:12;;;;;;;4.72;2.67;;;20.80;99.90;;;;;;5092079;28;20028;-90
2023/09/26 08:56:38;;;;;;;7.45;2.45;;;20.90;99.90;;;;;;5095198;28;20126;-91
2023/09/26 08:59:05;;;;;;;6.03;2.45;;;20.90;99.90;;;;;;5096014;28;20016;-91
2023/09/26 09:01:31;;;;;;;6.75;2.72;;;21.00;99.90;;;;;;5113562;28;20028;-90
2023/09/26 09:03:57;;;;;;;6.28;2.67;;;20.90;99.90;;;;;;5097078;28;20042;-91
2023/09/26 09:06:23;;;;;;;5.60;3.05;;;21.00;99.90;;;;;;5092880;28;20509;-90
2023/09/26 09:08:48;;;;;;;8.70;2.80;;;21.20;99.90;;;;;;5112500;28;20024;-90
2023/09/26 09:11:30;;;;;;;4.10;2.70;;;21.20;99.90;;;;;;5111886;28;20024;-91
2023/09/26 09:13:55;;;;;;;6.35;2.90;;;21.30;99.90;;;;;;5108111;28;20024;-93
2023/09/26 09:16:21;;;;;;;6.18;2.60;;;21.30;99.90;;;;;;5113276;28;20027;-89
2023/09/26 09:18:51;;;;;;;7.25;2.70;;;21.30;99.90;;;;;;5095109;28;20027;-88
2023/09/26 09:21:24;;;;;;;7.45;2.55;;;21.30;99.90;;;;;;5094258;28;20055;-90
2023/09/26 09:23:52;;;;;;;7.35;2.78;;;21.40;99.90;;;;;;5093237;28;20028;-91
2023/09/26 09:26:20;;;;;;;8.47;2.50;;;21.50;99.90;;;;;;5094567;28;20478;-90
2023/09/26 09:28:46;;;;;;;5.05;2.47;;;21.40;99.90;;;;;;5095244;28;20049;-89
2023/09/26 09:31:18;;;;;;;5.78;2.22;;;21.50;99.90;;;;;;5113536;28;20028;-92
2023/09/26 09:33:49;;;;;;;10.93;3.08;;;21.60;99.90;;;;;;5095812;28;20034;-91
2023/09/26 09:36:14;;;;;;;4.35;2.38;;;21.70;99.90;;;;;;5095062;28;20043;-91
2023/09/26 09:38:40;;;;;;;4.50;2.25;;;21.70;99.90;;;;;;5096208;28;20020;-90
2023/09/26 09:41:08;;;;;;;6.78;2.22;;;21.80;99.90;;;;;;5095404;28;20118;-89
2023/09/26 09:43:34;;;;;;;7.43;2.55;;;21.80;99.90;;;;;;5095259;28;20015;-88
2023/09/26 09:46:05;;;;;;;6.53;2.60;;;21.80;99.90;;;;;;5094484;28;20035;-89
2023/09/26 09:48:40;;;;;;;7.95;2.17;;;21.90;99.90;;;;;;5094595;28;20435;-91
2023/09/26 09:51:09;;;;;;;7.68;2.15;;;22.00;99.90;;;;;;5094882;28;20039;-88
2023/09/26 09:53:35;;;;;;;4.15;2.17;;;22.10;99.90;;;;;;5094045;28;20486;-91
2023/09/26 09:56:06;;;;;;;4.85;1.98;;;22.10;99.90;;;;;;5095034;28;20027;-89
2023/09/26 09:58:36;;;;;;;3.53;1.95;;;22.20;99.90;;;;;;5092109;28;20089;-89
2023/09/26 10:01:02;;;;;;;4.95;2.10;;;22.30;99.90;;;;;;5111465;28;20106;-87
2023/09/26 10:03:29;;;;;;;4.72;2.40;;;22.30;99.90;;;;;;5093669;28;20028;-89
2023/09/26 10:05:55;;;;;;;5.47;2.22;;;22.40;99.90;;;;;;5093884;28;20024;-91
2023/09/26 10:08:22;;;;;;;3.15;1.90;;;22.30;99.90;;;;;;5092709;28;20047;-90
2023/09/26 10:10:48;;;;;;;6.30;2.10;;;22.30;99.90;;;;;;5094652;28;20036;-91
2023/09/26 10:13:16;;;;;;;9.57;1.95;;;22.30;99.90;;;;;;5095274;28;20506;-89
2023/09/26 10:16:07;;;;;;;2.63;2.00;;;22.30;99.90;;;;;;5094654;28;20036;-90
2023/09/26 10:18:38;;;;;;;4.32;2.13;;;22.40;99.90;;;;;;5093177;28;20023;-92
2023/09/26 10:21:18;;;;;;;5.28;2.20;;;22.40;99.90;;;;;;5094644;28;20386;-93
2023/09/26 10:24:10;;;;;;;5.05;2.10;;;22.30;99.90;;;;;;5094701;28;20015;-94
2023/09/26 10:26:49;;;;;;;2.95;1.90;;;22.30;99.90;;;;;;5112298;28;20031;-91
2023/09/26 10:29:21;;;;;;;3.83;1.92;;;22.40;99.90;;;;;;5093239;28;20114;-92
2023/09/26 10:31:53;;;;;;;5.65;2.50;;;22.40;99.90;;;;;;5094647;28;20027;-91
2023/09/26 10:34:31;;;;;;;6.63;2.15;;;22.50;99.90;;;;;;5093657;28;20024;-94
2023/09/26 10:36:58;;;;;;;5.97;2.30;;;22.50;99.90;;;;;;5094131;28;20037;-92
2023/09/26 10:39:34;;;;;;;3.63;1.90;;;22.50;99.90;;;;;;5075902;28;20030;-93
2023/09/26 10:42:09;;;;;;;4.40;2.08;;;22.60;99.90;;;;;;5073755;28;20024;-92
2023/09/26 10:44:36;;;;;;;8.95;2.60;;;22.70;99.90;;;;;;5073371;28;20057;-91
2023/09/26 10:47:04;;;;;;;5.47;1.98;;;22.80;99.90;;;;;;5088929;28;20084;-90
2023/09/26 10:49:31;;;;;;;7.47;2.10;;;22.80;99.90;;;;;;5093167;28;20042;-94
2023/09/26 10:51:58;;;;;;;7.45;1.98;;;22.80;99.90;;;;;;5093761;28;20032;-89
2023/09/26 10:54:24;;;;;;;7.03;1.90;;;22.90;99.90;;;;;;5092891;28;20126;-92
2023/09/26 10:56:49;;;;;;;5.25;1.77;;;22.90;99.90;;;;;;5093544;28;20119;-93
2023/09/26 10:59:18;;;;;;;9.43;2.70;;;23.00;99.90;;;;;;5093920;28;20119;-92
2023/09/26 11:01:49;;;;;;;3.75;1.65;;;23.10;99.90;;;;;;5094153;28;20031;-91
2023/09/26 11:04:14;;;;;;;6.50;1.75;;;23.10;99.90;;;;;;5093995;28;20019;-92
2023/09/26 11:06:41;;;;;;;4.00;1.90;;;23.00;99.90;;;;;;5093101;28;20070;-89
2023/09/26 11:09:08;;;;;;;;;;;23.10;99.90;;;;;;5093600;28;20015;-93
2023/09/26 11:11:34;;;;;;;3.15;1.70;;;23.00;99.90;;;;;;5110533;28;20278;-92
2023/09/26 11:14:00;;;;;;;5.50;1.58;;;23.00;99.90;;;;;;5093400;28;20118;-91
2023/09/26 11:16:25;;;;;;;6.43;2.00;;;23.00;99.90;;;;;;5093340;28;20520;-93
2023/09/26 11:18:55;;;;;;;6.55;1.80;;;23.10;99.90;;;;;;5093193;28;20034;-92
2023/09/26 11:21:20;;;;;;;8.48;2.47;;;23.20;99.90;;;;;;5111257;28;20088;-89
2023/09/26 11:23:46;;;;;;;4.60;1.40;;;23.20;99.90;;;;;;5093832;28;20059;-89
2023/09/26 11:26:12;;;;;;;5.45;1.63;;;23.20;99.90;;;;;;5092399;28;20036;-91
2023/09/26 11:28:38;;;;;;;5.68;1.67;;;23.20;99.90;;;;;;5113011;28;20023;-92
2023/09/26 11:31:05;;;;;;;7.93;1.70;;;23.30;99.90;;;;;;5096611;28;20035;-93
2023/09/26 11:33:31;;;;;;;4.85;1.70;;;23.50;99.90;;;;;;5096117;28;20478;-90
2023/09/26 11:35:57;;;;;;;7.30;1.80;;;23.50;99.90;;;;;;5092863;28;20070;-94
2023/09/26 11:38:24;;;;;;;2.70;1.40;;;23.50;99.90;;;;;;5093574;28;20063;-94
2023/09/26 11:40:50;;;;;;;5.20;1.65;;;23.60;99.90;;;;;;5094352;28;20012;-90
2023/09/26 11:43:15;;;;;;;3.78;2.03;;;23.60;99.90;;;;;;5092857;28;20115;-90
2023/09/26 11:45:41;;;;;;;5.90;2.00;;;23.70;99.90;;;;;;5089198;28;20032;-89
2023/09/26 11:48:07;;;;;;;6.13;1.55;;;23.60;99.90;;;;;;5072712;28;20050;-89
2023/09/26 11:50:35;;;;;;;5.55;1.90;;;23.60;99.90;;;;;;5082289;28;20028;-88
2023/09/26 11:53:01;;;;;;;6.53;2.03;;;23.60;99.90;;;;;;5086028;28;20122;-86
2023/09/26 11:55:29;;;;;;;5.53;1.98;;;23.60;99.90;;;;;;5106721;28;20078;-86
2023/09/26 11:57:55;;;;;;;;;;;23.50;99.90;;;;;;5109497;28;20020;-86
2023/09/26 12:00:21;;;;;;;7.18;1.80;;;23.50;99.90;;;;;;5107882;28;19972;-86
2023/09/26 12:02:50;;;;;;;3.10;1.73;;;23.60;99.90;;;;;;5106622;28;20027;-87
2023/09/26 12:05:20;;;;;;;4.50;1.90;;;23.60;99.90;;;;;;5109576;28;20031;-85
2023/09/26 12:07:50;;;;;;;4.93;1.90;;;23.60;99.90;;;;;;5090778;28;20470;-86
2023/09/26 12:10:16;;;;;;;5.63;1.92;;;23.70;99.90;;;;;;5109062;28;20027;-86
2023/09/26 12:12:42;;;;;;;4.03;1.65;;;23.60;99.90;;;;;;5108780;28;20111;-86
2023/09/26 12:15:16;;;;;;;4.55;1.77;;;23.60;99.90;;;;;;5108693;28;20095;-90
2023/09/26 12:17:42;;;;;;;5.72;2.08;;;23.80;99.90;;;;;;5090174;28;20032;-86
2023/09/26 12:20:09;;;;;;;6.15;1.95;;;23.80;99.90;;;;;;5089696;28;20386;-86
2023/09/26 12:22:35;;;;;;;6.90;1.90;;;23.90;99.90;;;;;;5108542;28;20023;-85
2023/09/26 12:25:01;;;;;;;4.07;1.73;;;24.00;99.90;;;;;;5090427;28;20405;-86
2023/09/26 12:27:26;;;;;;;5.47;1.70;;;24.00;99.90;;;;;;5107726;28;20077;-87
2023/09/26 12:29:52;;;;;;;4.07;1.52;;;24.00;99.90;;;;;;5107823;28;20035;-86
2023/09/26 12:32:18;;;;;;;8.82;1.90;;;24.00;99.90;;;;;;5111658;28;20020;-85
2023/09/26 12:34:43;;;;;;;3.85;1.67;;;24.00;99.90;;;;;;5109764;28;20080;-86
2023/09/26 12:37:09;;;;;;;7.25;1.77;;;23.90;99.90;;;;;;5093410;28;20131;-85
2023/09/26 12:39:34;;;;;;;7.25;1.67;;;23.90;99.90;;;;;;5111471;28;20195;-85
2023/09/26 12:42:00;;;;;;;3.58;1.83;;;23.90;99.90;;;;;;5093166;28;20028;-86
2023/09/26 12:44:26;;;;;;;3.90;1.50;;;23.90;99.90;;;;;;5083872;28;20059;-86
2023/09/26 12:46:52;;;;;;;7.20;1.75;;;24.00;99.90;;;;;;5094249;28;20030;-86